createdAt,value
2018-02-06T06:24:45.762Z,100821.48
2018-02-06T06:27:12.705Z,100816.31
2018-02-06T06:29:40.184Z,100815.03
2018-02-06T06:32:07.768Z,100810.73
2018-02-06T06:34:41.020Z,100803.40
2018-02-06T06:37:35.321Z,100813.30
2018-02-06T06:40:21.403Z,100805.11
2018-02-06T06:43:00.465Z,100806.41
2018-02-06T06:48:54.894Z,100800.80
2018-02-06T06:51:21.836Z,100794.77
2018-02-06T06:53:49.538Z,100792.63
2018-02-06T06:56:16.864Z,100797.34
2018-02-06T06:58:43.837Z,100792.19
2018-02-06T07:01:11.174Z,100793.47
2018-02-06T07:03:42.240Z,100793.50
2018-02-06T07:06:11.637Z,100790.89
2018-02-06T07:08:41.140Z,100788.75
2018-02-06T07:11:08.723Z,100781.39
2018-02-06T07:13:35.699Z,100788.28
2018-02-06T07:16:02.946Z,100786.57
2018-02-06T07:18:29.956Z,100789.17
2018-02-06T07:20:57.818Z,100792.18
2018-02-06T07:23:26.937Z,100785.30
2018-02-06T07:25:53.885Z,100776.65
2018-02-06T07:28:20.797Z,100783.13
2018-02-06T07:36:39.277Z,100773.64
2018-02-06T07:39:08.034Z,100770.20
2018-02-06T07:41:35.008Z,100771.05
2018-02-06T07:44:02.963Z,100762.84
2018-02-06T07:46:29.931Z,100766.31
2018-02-06T07:51:32.030Z,100769.73
2018-02-06T07:53:59.524Z,100770.19
2018-02-06T07:56:27.175Z,100771.91
2018-02-06T07:58:55.190Z,100782.70
2018-02-06T08:01:22.350Z,100771.48
2018-02-06T08:04:21.855Z,100771.46
2018-02-06T08:06:59.641Z,100768.91
2018-02-06T08:13:02.947Z,100766.72
2018-02-06T08:21:33.689Z,100752.48
2018-02-06T08:29:51.432Z,100748.17
2018-02-06T08:32:26.293Z,100743.84
2018-02-06T08:35:04.355Z,100743.84
2018-02-06T08:37:32.652Z,100749.45
2018-02-06T08:49:26.559Z,100736.47
2018-02-06T09:00:56.567Z,100721.30
2018-02-06T09:11:43.748Z,100719.15
2018-02-06T09:14:14.352Z,100720.86
2018-02-06T09:23:06.705Z,100704.38
2018-02-06T09:25:58.621Z,100700.94
2018-02-06T09:46:25.318Z,100682.53
2018-02-06T09:49:17.372Z,100674.30
2018-02-06T09:51:45.362Z,100683.73
2018-02-06T09:54:14.445Z,100672.81
2018-02-06T09:59:50.919Z,100684.00
2018-02-06T10:05:06.346Z,100675.13
2018-02-06T10:07:33.725Z,100680.36
2018-02-06T10:10:02.812Z,100674.22
2018-02-06T10:12:32.422Z,100672.41
2018-02-06T10:15:00.611Z,100667.59
2018-02-06T10:17:33.510Z,100670.09
2018-02-06T10:20:01.306Z,100672.66
2018-02-06T10:22:29.359Z,100673.91
2018-02-06T10:24:56.374Z,100661.30
2018-02-06T10:30:01.759Z,100662.47
2018-02-06T10:32:31.102Z,100658.55
2018-02-06T10:35:02.429Z,100661.02
2018-02-06T10:37:48.042Z,100659.30
2018-02-06T10:40:15.369Z,100647.56
2018-02-06T10:42:42.317Z,100640.09
2018-02-06T10:45:10.173Z,100639.16
2018-02-06T10:47:37.100Z,100646.10
2018-02-06T10:50:04.015Z,100644.70
2018-02-06T10:52:31.646Z,100635.98
2018-02-06T10:57:50.053Z,100636.31
2018-02-06T20:09:10.751Z,100461.50
2018-02-06T20:11:43.482Z,100463.92
2018-02-06T20:14:15.337Z,100467.34
2018-02-06T20:16:47.385Z,100461.70
2018-02-06T20:21:50.791Z,100462.27
2018-02-06T20:26:55.695Z,100456.19
2018-02-06T20:29:24.872Z,100457.53
2018-02-06T20:31:58.314Z,100463.95
2018-02-06T20:37:06.686Z,100458.95
2018-02-06T20:39:38.994Z,100464.86
2018-02-06T20:42:08.495Z,100468.44
2018-02-06T20:44:39.703Z,100464.08
2018-02-06T20:47:11.786Z,100457.80
2018-02-06T20:55:01.139Z,100463.45
